sensor_id;sensor_type;location;lat;lon;timestamp;P1;durP1;ratioP1;P2;durP2;ratioP2
49223;SDS011;35050;51.316;5.994;2022-12-01T00:02:15;25.00;;;16.00;;
49223;SDS011;35050;51.316;5.994;2022-12-01T00:04:41;21.95;;;14.07;;
49223;SDS011;35050;51.316;5.994;2022-12-01T00:07:06;21.33;;;13.05;;
49223;SDS011;35050;51.316;5.994;2022-12-01T00:09:32;21.55;;;12.98;;
49223;SDS011;35050;51.316;5.994;2022-12-01T00:12:16;21.23;;;13.32;;
49223;SDS011;35050;51.316;5.994;2022-12-01T00:14:42;18.67;;;11.73;;
49223;SDS011;35050;51.316;5.994;2022-12-01T00:17:07;17.23;;;11.38;;
49223;SDS011;35050;51.316;5.994;2022-12-01T00:19:33;14.07;;;9.52;;
49223;SDS011;35050;51.316;5.994;2022-12-01T00:21:58;14.77;;;9.75;;
49223;SDS011;35050;51.316;5.994;2022-12-01T00:24:24;17.05;;;11.05;;
49223;SDS011;35050;51.316;5.994;2022-12-01T00:26:49;17.35;;;10.00;;
49223;SDS011;35050;51.316;5.994;2022-12-01T00:29:15;18.48;;;11.73;;
49223;SDS011;35050;51.316;5.994;2022-12-01T00:31:43;23.58;;;13.48;;
49223;SDS011;35050;51.316;5.994;2022-12-01T00:34:22;24.00;;;13.05;;
49223;SDS011;35050;51.316;5.994;2022-12-01T00:36:49;23.65;;;13.68;;
49223;SDS011;35050;51.316;5.994;2022-12-01T00:39:15;22.63;;;12.38;;
49223;SDS011;35050;51.316;5.994;2022-12-01T00:41:41;18.80;;;12.07;;
49223;SDS011;35050;51.316;5.994;2022-12-01T00:44:07;26.23;;;14.70;;
49223;SDS011;35050;51.316;5.994;2022-12-01T00:46:32;31.05;;;17.40;;
49223;SDS011;35050;51.316;5.994;2022-12-01T00:48:58;27.90;;;16.48;;
49223;SDS011;35050;51.316;5.994;2022-12-01T00:51:24;30.98;;;16.70;;
49223;SDS011;35050;51.316;5.994;2022-12-01T00:53:49;30.27;;;17.13;;
49223;SDS011;35050;51.316;5.994;2022-12-01T00:56:15;35.20;;;18.63;;
49223;SDS011;35050;51.316;5.994;2022-12-01T00:58:40;36.20;;;18.83;;
49223;SDS011;35050;51.316;5.994;2022-12-01T01:01:06;37.80;;;20.60;;
49223;SDS011;35050;51.316;5.994;2022-12-01T01:03:32;36.58;;;19.80;;
49223;SDS011;35050;51.316;5.994;2022-12-01T01:06:05;35.00;;;18.55;;
49223;SDS011;35050;51.316;5.994;2022-12-01T01:08:32;37.92;;;20.27;;
49223;SDS011;35050;51.316;5.994;2022-12-01T01:10:59;31.45;;;17.55;;
49223;SDS011;35050;51.316;5.994;2022-12-01T01:13:25;34.10;;;18.00;;
49223;SDS011;35050;51.316;5.994;2022-12-01T01:15:59;34.58;;;18.35;;
49223;SDS011;35050;51.316;5.994;2022-12-01T01:18:32;40.15;;;20.52;;
49223;SDS011;35050;51.316;5.994;2022-12-01T01:21:00;33.42;;;18.20;;
49223;SDS011;35050;51.316;5.994;2022-12-01T01:23:28;43.20;;;21.50;;
49223;SDS011;35050;51.316;5.994;2022-12-01T01:25:59;40.17;;;20.20;;
49223;SDS011;35050;51.316;5.994;2022-12-01T01:28:30;41.22;;;21.10;;
49223;SDS011;35050;51.316;5.994;2022-12-01T01:30:56;39.28;;;19.63;;
49223;SDS011;35050;51.316;5.994;2022-12-01T01:33:21;34.25;;;19.50;;
49223;SDS011;35050;51.316;5.994;2022-12-01T01:35:47;36.97;;;19.88;;
49223;SDS011;35050;51.316;5.994;2022-12-01T01:38:13;37.15;;;19.58;;
49223;SDS011;35050;51.316;5.994;2022-12-01T01:40:42;32.92;;;18.75;;
49223;SDS011;35050;51.316;5.994;2022-12-01T01:43:12;36.83;;;19.52;;
49223;SDS011;35050;51.316;5.994;2022-12-01T01:45:40;43.22;;;23.17;;
49223;SDS011;35050;51.316;5.994;2022-12-01T01:48:06;36.58;;;20.13;;
49223;SDS011;35050;51.316;5.994;2022-12-01T01:50:33;34.80;;;19.38;;
49223;SDS011;35050;51.316;5.994;2022-12-01T01:53:03;40.83;;;21.73;;
49223;SDS011;35050;51.316;5.994;2022-12-01T01:55:32;34.72;;;18.10;;
49223;SDS011;35050;51.316;5.994;2022-12-01T01:58:00;35.55;;;19.55;;
49223;SDS011;35050;51.316;5.994;2022-12-01T02:00:29;29.75;;;17.00;;
49223;SDS011;35050;51.316;5.994;2022-12-01T02:02:55;29.58;;;16.58;;
49223;SDS011;35050;51.316;5.994;2022-12-01T02:05:22;22.52;;;13.70;;
49223;SDS011;35050;51.316;5.994;2022-12-01T02:07:50;26.83;;;14.20;;
49223;SDS011;35050;51.316;5.994;2022-12-01T02:10:19;30.13;;;16.00;;
49223;SDS011;35050;51.316;5.994;2022-12-01T02:13:05;30.70;;;17.33;;
49223;SDS011;35050;51.316;5.994;2022-12-01T02:18:22;29.55;;;17.60;;
49223;SDS011;35050;51.316;5.994;2022-12-01T02:24:16;28.63;;;16.60;;
49223;SDS011;35050;51.316;5.994;2022-12-01T02:27:11;35.05;;;20.55;;
49223;SDS011;35050;51.316;5.994;2022-12-01T02:32:28;28.98;;;16.95;;
49223;SDS011;35050;51.316;5.994;2022-12-01T02:34:56;30.00;;;16.73;;
49223;SDS011;35050;51.316;5.994;2022-12-01T02:40:29;29.80;;;17.10;;
49223;SDS011;35050;51.316;5.994;2022-12-01T02:43:06;29.05;;;16.42;;
49223;SDS011;35050;51.316;5.994;2022-12-01T02:45:45;32.40;;;17.15;;
49223;SDS011;35050;51.316;5.994;2022-12-01T02:48:34;36.83;;;19.88;;
49223;SDS011;35050;51.316;5.994;2022-12-01T02:51:09;32.83;;;18.48;;
49223;SDS011;35050;51.316;5.994;2022-12-01T02:53:40;33.00;;;18.67;;
49223;SDS011;35050;51.316;5.994;2022-12-01T02:56:08;34.97;;;17.42;;
49223;SDS011;35050;51.316;5.994;2022-12-01T02:58:35;28.67;;;15.40;;
49223;SDS011;35050;51.316;5.994;2022-12-01T03:07:09;28.10;;;15.18;;
49223;SDS011;35050;51.316;5.994;2022-12-01T03:17:32;36.70;;;19.40;;
49223;SDS011;35050;51.316;5.994;2022-12-01T03:20:09;39.45;;;19.42;;
49223;SDS011;35050;51.316;5.994;2022-12-01T03:22:42;30.23;;;17.33;;
49223;SDS011;35050;51.316;5.994;2022-12-01T03:25:13;33.22;;;17.65;;
49223;SDS011;35050;51.316;5.994;2022-12-01T03:27:41;29.45;;;15.95;;
49223;SDS011;35050;51.316;5.994;2022-12-01T03:30:09;33.45;;;17.35;;
49223;SDS011;35050;51.316;5.994;2022-12-01T03:32:37;46.13;;;22.42;;
49223;SDS011;35050;51.316;5.994;2022-12-01T03:35:19;41.70;;;20.65;;
49223;SDS011;35050;51.316;5.994;2022-12-01T03:37:50;41.63;;;21.30;;
49223;SDS011;35050;51.316;5.994;2022-12-01T03:40:22;40.78;;;20.33;;
49223;SDS011;35050;51.316;5.994;2022-12-01T03:42:56;37.50;;;20.48;;
49223;SDS011;35050;51.316;5.994;2022-12-01T03:48:13;37.78;;;19.27;;
49223;SDS011;35050;51.316;5.994;2022-12-01T03:53:54;34.78;;;17.33;;
49223;SDS011;35050;51.316;5.994;2022-12-01T03:56:22;32.83;;;16.42;;
49223;SDS011;35050;51.316;5.994;2022-12-01T03:58:51;35.05;;;17.08;;
49223;SDS011;35050;51.316;5.994;2022-12-01T04:01:21;39.70;;;19.02;;
49223;SDS011;35050;51.316;5.994;2022-12-01T04:03:47;42.75;;;19.88;;
49223;SDS011;35050;51.316;5.994;2022-12-01T04:06:13;40.10;;;20.10;;
49223;SDS011;35050;51.316;5.994;2022-12-01T04:08:39;36.45;;;18.67;;
49223;SDS011;35050;51.316;5.994;2022-12-01T04:11:04;42.22;;;21.65;;
49223;SDS011;35050;51.316;5.994;2022-12-01T04:13:50;40.60;;;19.17;;
49223;SDS011;35050;51.316;5.994;2022-12-01T04:16:16;40.63;;;20.30;;
49223;SDS011;35050;51.316;5.994;2022-12-01T04:18:42;42.63;;;22.52;;
49223;SDS011;35050;51.316;5.994;2022-12-01T04:21:07;39.08;;;20.73;;
49223;SDS011;35050;51.316;5.994;2022-12-01T04:23:33;43.38;;;20.88;;
49223;SDS011;35050;51.316;5.994;2022-12-01T04:26:17;46.20;;;22.75;;
49223;SDS011;35050;51.316;5.994;2022-12-01T04:28:43;39.85;;;19.35;;
49223;SDS011;35050;51.316;5.994;2022-12-01T04:31:09;45.10;;;22.17;;
49223;SDS011;35050;51.316;5.994;2022-12-01T04:33:34;37.45;;;19.38;;
49223;SDS011;35050;51.316;5.994;2022-12-01T04:36:00;44.17;;;22.33;;
49223;SDS011;35050;51.316;5.994;2022-12-01T04:38:25;40.17;;;18.95;;
49223;SDS011;35050;51.316;5.994;2022-12-01T04:40:51;38.97;;;19.05;;
49223;SDS011;35050;51.316;5.994;2022-12-01T04:43:17;33.22;;;16.83;;
49223;SDS011;35050;51.316;5.994;2022-12-01T04:45:43;32.05;;;16.30;;
49223;SDS011;35050;51.316;5.994;2022-12-01T04:48:08;33.90;;;15.45;;
49223;SDS011;35050;51.316;5.994;2022-12-01T04:50:34;38.20;;;17.83;;
49223;SDS011;35050;51.316;5.994;2022-12-01T04:52:59;35.90;;;17.73;;
49223;SDS011;35050;51.316;5.994;2022-12-01T04:55:25;39.53;;;19.05;;
49223;SDS011;35050;51.316;5.994;2022-12-01T04:57:51;31.65;;;15.55;;
49223;SDS011;35050;51.316;5.994;2022-12-01T05:00:16;35.20;;;17.23;;
49223;SDS011;35050;51.316;5.994;2022-12-01T05:02:42;36.72;;;17.55;;
49223;SDS011;35050;51.316;5.994;2022-12-01T05:05:11;41.58;;;19.38;;
49223;SDS011;35050;51.316;5.994;2022-12-01T05:07:38;42.38;;;19.35;;
49223;SDS011;35050;51.316;5.994;2022-12-01T05:10:04;44.47;;;19.92;;
49223;SDS011;35050;51.316;5.994;2022-12-01T05:12:30;38.05;;;18.02;;
49223;SDS011;35050;51.316;5.994;2022-12-01T05:14:56;40.25;;;18.05;;
49223;SDS011;35050;51.316;5.994;2022-12-01T05:17:22;32.72;;;15.57;;
49223;SDS011;35050;51.316;5.994;2022-12-01T05:19:47;26.33;;;13.02;;
49223;SDS011;35050;51.316;5.994;2022-12-01T05:22:32;29.85;;;14.15;;
49223;SDS011;35050;51.316;5.994;2022-12-01T05:24:57;31.25;;;15.35;;
49223;SDS011;35050;51.316;5.994;2022-12-01T05:27:23;41.22;;;18.73;;
49223;SDS011;35050;51.316;5.994;2022-12-01T05:29:49;40.95;;;17.58;;
49223;SDS011;35050;51.316;5.994;2022-12-01T05:32:14;32.13;;;16.08;;
49223;SDS011;35050;51.316;5.994;2022-12-01T05:34:40;34.35;;;15.48;;
49223;SDS011;35050;51.316;5.994;2022-12-01T05:37:06;31.75;;;14.38;;
49223;SDS011;35050;51.316;5.994;2022-12-01T05:39:31;31.73;;;15.00;;
49223;SDS011;35050;51.316;5.994;2022-12-01T05:41:57;30.73;;;14.68;;
49223;SDS011;35050;51.316;5.994;2022-12-01T05:44:22;39.83;;;17.92;;
49223;SDS011;35050;51.316;5.994;2022-12-01T05:46:48;32.75;;;16.00;;
49223;SDS011;35050;51.316;5.994;2022-12-01T05:49:13;24.95;;;13.45;;
49223;SDS011;35050;51.316;5.994;2022-12-01T05:51:39;29.73;;;13.70;;
49223;SDS011;35050;51.316;5.994;2022-12-01T05:54:07;30.70;;;14.73;;
49223;SDS011;35050;51.316;5.994;2022-12-01T05:56:32;25.15;;;13.15;;
49223;SDS011;35050;51.316;5.994;2022-12-01T05:58:58;24.38;;;13.02;;
49223;SDS011;35050;51.316;5.994;2022-12-01T06:01:23;27.85;;;12.68;;
49223;SDS011;35050;51.316;5.994;2022-12-01T06:03:49;24.55;;;13.05;;
49223;SDS011;35050;51.316;5.994;2022-12-01T06:06:16;25.15;;;12.07;;
49223;SDS011;35050;51.316;5.994;2022-12-01T06:08:42;26.95;;;12.55;;
49223;SDS011;35050;51.316;5.994;2022-12-01T06:11:08;26.48;;;12.93;;
49223;SDS011;35050;51.316;5.994;2022-12-01T06:13:33;31.45;;;14.35;;
49223;SDS011;35050;51.316;5.994;2022-12-01T06:16:00;31.92;;;16.02;;
49223;SDS011;35050;51.316;5.994;2022-12-01T06:18:34;29.40;;;14.77;;
49223;SDS011;35050;51.316;5.994;2022-12-01T06:21:02;26.85;;;13.73;;
49223;SDS011;35050;51.316;5.994;2022-12-01T06:23:29;20.52;;;11.25;;
49223;SDS011;35050;51.316;5.994;2022-12-01T06:25:55;19.92;;;11.20;;
49223;SDS011;35050;51.316;5.994;2022-12-01T06:28:21;20.05;;;10.70;;
49223;SDS011;35050;51.316;5.994;2022-12-01T06:30:46;21.30;;;11.32;;
49223;SDS011;35050;51.316;5.994;2022-12-01T06:33:12;20.08;;;11.13;;
49223;SDS011;35050;51.316;5.994;2022-12-01T06:35:37;20.45;;;11.45;;
49223;SDS011;35050;51.316;5.994;2022-12-01T06:38:03;20.27;;;11.55;;
49223;SDS011;35050;51.316;5.994;2022-12-01T06:40:29;22.65;;;11.20;;
49223;SDS011;35050;51.316;5.994;2022-12-01T06:42:59;19.15;;;10.00;;
49223;SDS011;35050;51.316;5.994;2022-12-01T06:45:28;20.67;;;11.02;;
49223;SDS011;35050;51.316;5.994;2022-12-01T06:47:55;19.05;;;9.93;;
49223;SDS011;35050;51.316;5.994;2022-12-01T06:50:21;13.60;;;8.15;;
49223;SDS011;35050;51.316;5.994;2022-12-01T06:52:48;15.73;;;9.43;;
49223;SDS011;35050;51.316;5.994;2022-12-01T06:55:14;18.40;;;10.30;;
49223;SDS011;35050;51.316;5.994;2022-12-01T06:57:40;18.10;;;8.93;;
49223;SDS011;35050;51.316;5.994;2022-12-01T07:00:07;19.85;;;11.75;;
49223;SDS011;35050;51.316;5.994;2022-12-01T07:02:34;19.92;;;10.95;;
49223;SDS011;35050;51.316;5.994;2022-12-01T07:05:00;18.52;;;9.60;;
49223;SDS011;35050;51.316;5.994;2022-12-01T07:07:26;19.27;;;9.73;;
49223;SDS011;35050;51.316;5.994;2022-12-01T07:09:51;16.33;;;8.57;;
49223;SDS011;35050;51.316;5.994;2022-12-01T07:12:17;14.15;;;8.35;;
49223;SDS011;35050;51.316;5.994;2022-12-01T07:14:43;16.65;;;9.68;;
49223;SDS011;35050;51.316;5.994;2022-12-01T07:17:09;17.98;;;10.60;;
49223;SDS011;35050;51.316;5.994;2022-12-01T07:19:34;16.02;;;9.93;;
49223;SDS011;35050;51.316;5.994;2022-12-01T07:22:00;15.82;;;9.27;;
49223;SDS011;35050;51.316;5.994;2022-12-01T07:24:26;20.42;;;11.77;;
49223;SDS011;35050;51.316;5.994;2022-12-01T07:26:52;20.98;;;10.80;;
49223;SDS011;35050;51.316;5.994;2022-12-01T07:29:17;16.45;;;9.60;;
49223;SDS011;35050;51.316;5.994;2022-12-01T07:31:43;16.83;;;9.85;;
49223;SDS011;35050;51.316;5.994;2022-12-01T07:34:10;15.43;;;9.18;;
49223;SDS011;35050;51.316;5.994;2022-12-01T07:36:37;13.68;;;8.80;;
49223;SDS011;35050;51.316;5.994;2022-12-01T07:39:03;16.58;;;8.57;;
49223;SDS011;35050;51.316;5.994;2022-12-01T07:41:30;16.67;;;8.98;;
49223;SDS011;35050;51.316;5.994;2022-12-01T07:43:56;15.88;;;9.38;;
49223;SDS011;35050;51.316;5.994;2022-12-01T07:46:24;17.38;;;10.43;;
49223;SDS011;35050;51.316;5.994;2022-12-01T07:48:51;19.35;;;11.07;;
49223;SDS011;35050;51.316;5.994;2022-12-01T07:51:18;15.88;;;9.45;;
49223;SDS011;35050;51.316;5.994;2022-12-01T07:53:46;26.73;;;14.35;;
49223;SDS011;35050;51.316;5.994;2022-12-01T07:56:13;30.58;;;15.30;;
49223;SDS011;35050;51.316;5.994;2022-12-01T07:58:39;27.58;;;15.38;;
49223;SDS011;35050;51.316;5.994;2022-12-01T08:01:06;25.42;;;14.00;;
49223;SDS011;35050;51.316;5.994;2022-12-01T08:03:34;20.58;;;12.45;;
49223;SDS011;35050;51.316;5.994;2022-12-01T08:06:00;25.35;;;15.45;;
49223;SDS011;35050;51.316;5.994;2022-12-01T08:08:27;29.17;;;17.13;;
49223;SDS011;35050;51.316;5.994;2022-12-01T08:10:54;27.67;;;16.88;;
49223;SDS011;35050;51.316;5.994;2022-12-01T08:13:24;31.23;;;18.10;;
49223;SDS011;35050;51.316;5.994;2022-12-01T08:15:50;28.77;;;17.02;;
49223;SDS011;35050;51.316;5.994;2022-12-01T08:18:15;32.33;;;17.75;;
49223;SDS011;35050;51.316;5.994;2022-12-01T08:20:41;29.13;;;18.50;;
49223;SDS011;35050;51.316;5.994;2022-12-01T08:23:07;32.28;;;19.58;;
49223;SDS011;35050;51.316;5.994;2022-12-01T08:25:32;25.92;;;16.27;;
49223;SDS011;35050;51.316;5.994;2022-12-01T08:27:58;27.17;;;16.95;;
49223;SDS011;35050;51.316;5.994;2022-12-01T08:30:25;29.10;;;17.73;;
49223;SDS011;35050;51.316;5.994;2022-12-01T08:32:55;26.73;;;16.50;;
49223;SDS011;35050;51.316;5.994;2022-12-01T08:35:21;27.13;;;16.65;;
49223;SDS011;35050;51.316;5.994;2022-12-01T08:37:50;26.38;;;15.85;;
49223;SDS011;35050;51.316;5.994;2022-12-01T08:40:16;26.95;;;18.27;;
49223;SDS011;35050;51.316;5.994;2022-12-01T08:42:42;27.02;;;17.17;;
49223;SDS011;35050;51.316;5.994;2022-12-01T08:45:08;27.75;;;17.17;;
49223;SDS011;35050;51.316;5.994;2022-12-01T08:47:35;28.00;;;17.27;;
49223;SDS011;35050;51.316;5.994;2022-12-01T08:50:01;23.45;;;15.98;;
49223;SDS011;35050;51.316;5.994;2022-12-01T08:52:31;26.52;;;17.33;;
49223;SDS011;35050;51.316;5.994;2022-12-01T08:54:58;34.95;;;21.10;;
49223;SDS011;35050;51.316;5.994;2022-12-01T08:57:23;35.83;;;22.05;;
49223;SDS011;35050;51.316;5.994;2022-12-01T08:59:49;34.38;;;21.40;;
49223;SDS011;35050;51.316;5.994;2022-12-01T09:02:15;32.35;;;20.88;;
49223;SDS011;35050;51.316;5.994;2022-12-01T09:04:46;27.42;;;18.25;;
49223;SDS011;35050;51.316;5.994;2022-12-01T09:07:13;32.97;;;20.08;;
49223;SDS011;35050;51.316;5.994;2022-12-01T09:09:40;25.98;;;17.77;;
49223;SDS011;35050;51.316;5.994;2022-12-01T09:12:07;27.77;;;17.75;;
49223;SDS011;35050;51.316;5.994;2022-12-01T09:14:37;30.33;;;18.50;;
49223;SDS011;35050;51.316;5.994;2022-12-01T09:17:04;26.75;;;16.55;;
49223;SDS011;35050;51.316;5.994;2022-12-01T09:19:30;23.48;;;15.75;;
49223;SDS011;35050;51.316;5.994;2022-12-01T09:21:56;21.35;;;14.00;;
49223;SDS011;35050;51.316;5.994;2022-12-01T09:24:22;22.02;;;15.05;;
49223;SDS011;35050;51.316;5.994;2022-12-01T09:26:48;29.10;;;17.30;;
49223;SDS011;35050;51.316;5.994;2022-12-01T09:29:15;23.92;;;15.52;;
49223;SDS011;35050;51.316;5.994;2022-12-01T09:31:41;24.70;;;15.43;;
49223;SDS011;35050;51.316;5.994;2022-12-01T09:34:10;24.92;;;15.32;;
49223;SDS011;35050;51.316;5.994;2022-12-01T09:36:38;24.90;;;17.73;;
49223;SDS011;35050;51.316;5.994;2022-12-01T09:39:05;32.35;;;19.45;;
49223;SDS011;35050;51.316;5.994;2022-12-01T09:41:36;26.55;;;18.00;;
49223;SDS011;35050;51.316;5.994;2022-12-01T09:46:50;25.02;;;16.30;;
49223;SDS011;35050;51.316;5.994;2022-12-01T09:49:24;25.52;;;17.30;;
49223;SDS011;35050;51.316;5.994;2022-12-01T09:51:57;30.20;;;18.48;;
49223;SDS011;35050;51.316;5.994;2022-12-01T09:54:24;25.52;;;17.48;;
49223;SDS011;35050;51.316;5.994;2022-12-01T09:56:50;27.40;;;16.52;;
49223;SDS011;35050;51.316;5.994;2022-12-01T09:59:20;26.92;;;17.48;;
49223;SDS011;35050;51.316;5.994;2022-12-01T10:01:54;26.58;;;15.75;;
49223;SDS011;35050;51.316;5.994;2022-12-01T10:04:38;32.38;;;18.55;;
49223;SDS011;35050;51.316;5.994;2022-12-01T10:09:55;27.60;;;17.77;;
49223;SDS011;35050;51.316;5.994;2022-12-01T10:12:23;28.95;;;17.20;;
49223;SDS011;35050;51.316;5.994;2022-12-01T10:14:52;27.17;;;16.90;;
49223;SDS011;35050;51.316;5.994;2022-12-01T10:20:11;36.38;;;21.55;;
49223;SDS011;35050;51.316;5.994;2022-12-01T10:25:26;31.73;;;19.65;;
49223;SDS011;35050;51.316;5.994;2022-12-01T10:30:51;34.10;;;20.77;;
49223;SDS011;35050;51.316;5.994;2022-12-01T10:33:24;30.42;;;19.20;;
49223;SDS011;35050;51.316;5.994;2022-12-01T10:35:54;30.67;;;18.73;;
49223;SDS011;35050;51.316;5.994;2022-12-01T10:38:25;33.05;;;19.80;;
49223;SDS011;35050;51.316;5.994;2022-12-01T10:40:53;31.77;;;19.15;;
49223;SDS011;35050;51.316;5.994;2022-12-01T10:43:24;30.25;;;17.88;;
49223;SDS011;35050;51.316;5.994;2022-12-01T10:46:03;28.17;;;16.85;;
49223;SDS011;35050;51.316;5.994;2022-12-01T10:48:59;29.70;;;18.67;;
49223;SDS011;35050;51.316;5.994;2022-12-01T10:51:31;31.85;;;19.88;;
49223;SDS011;35050;51.316;5.994;2022-12-01T10:54:27;29.25;;;17.25;;
49223;SDS011;35050;51.316;5.994;2022-12-01T10:57:06;31.70;;;18.63;;
49223;SDS011;35050;51.316;5.994;2022-12-01T11:02:19;27.15;;;15.98;;
49223;SDS011;35050;51.316;5.994;2022-12-01T11:05:06;29.45;;;17.00;;
49223;SDS011;35050;51.316;5.994;2022-12-01T11:07:50;29.70;;;18.13;;
49223;SDS011;35050;51.316;5.994;2022-12-01T11:10:17;28.80;;;17.42;;
49223;SDS011;35050;51.316;5.994;2022-12-01T11:12:55;26.50;;;16.60;;
49223;SDS011;35050;51.316;5.994;2022-12-01T11:15:32;24.67;;;15.80;;
49223;SDS011;35050;51.316;5.994;2022-12-01T11:18:08;26.63;;;15.88;;
49223;SDS011;35050;51.316;5.994;2022-12-01T11:21:07;27.80;;;16.75;;
49223;SDS011;35050;51.316;5.994;2022-12-01T11:26:08;28.75;;;16.60;;
49223;SDS011;35050;51.316;5.994;2022-12-01T11:28:42;24.77;;;15.02;;
49223;SDS011;35050;51.316;5.994;2022-12-01T11:31:17;23.80;;;14.70;;
49223;SDS011;35050;51.316;5.994;2022-12-01T11:33:52;24.52;;;14.90;;
49223;SDS011;35050;51.316;5.994;2022-12-01T11:36:21;25.48;;;15.18;;
49223;SDS011;35050;51.316;5.994;2022-12-01T11:39:06;24.35;;;15.10;;
49223;SDS011;35050;51.316;5.994;2022-12-01T11:41:55;25.33;;;15.18;;
49223;SDS011;35050;51.316;5.994;2022-12-01T11:44:23;25.73;;;16.50;;
49223;SDS011;35050;51.316;5.994;2022-12-01T11:46:49;28.73;;;16.17;;
49223;SDS011;35050;51.316;5.994;2022-12-01T11:49:16;27.38;;;17.10;;
49223;SDS011;35050;51.316;5.994;2022-12-01T11:51:44;25.55;;;16.92;;
49223;SDS011;35050;51.316;5.994;2022-12-01T11:54:23;24.15;;;15.73;;
49223;SDS011;35050;51.316;5.994;2022-12-01T11:56:50;26.80;;;16.13;;
49223;SDS011;35050;51.316;5.994;2022-12-01T11:59:24;23.02;;;14.52;;
49223;SDS011;35050;51.316;5.994;2022-12-01T12:04:43;24.17;;;15.15;;
49223;SDS011;35050;51.316;5.994;2022-12-01T12:10:22;21.33;;;13.13;;
49223;SDS011;35050;51.316;5.994;2022-12-01T12:24:00;21.75;;;13.18;;
49223;SDS011;35050;51.316;5.994;2022-12-01T12:32:41;21.45;;;13.00;;
49223;SDS011;35050;51.316;5.994;2022-12-01T12:38:03;21.02;;;14.00;;
49223;SDS011;35050;51.316;5.994;2022-12-01T12:43:21;17.23;;;11.38;;
49223;SDS011;35050;51.316;5.994;2022-12-01T12:46:10;17.58;;;12.30;;
49223;SDS011;35050;51.316;5.994;2022-12-01T12:51:21;18.53;;;11.97;;
49223;SDS011;35050;51.316;5.994;2022-12-01T12:53:59;21.73;;;14.05;;
49223;SDS011;35050;51.316;5.994;2022-12-01T12:56:34;21.17;;;13.40;;
49223;SDS011;35050;51.316;5.994;2022-12-01T12:59:02;18.63;;;12.40;;
49223;SDS011;35050;51.316;5.994;2022-12-01T13:01:37;23.10;;;13.43;;
49223;SDS011;35050;51.316;5.994;2022-12-01T13:04:24;20.00;;;13.52;;
49223;SDS011;35050;51.316;5.994;2022-12-01T13:07:01;22.08;;;14.70;;
49223;SDS011;35050;51.316;5.994;2022-12-01T13:09:39;21.63;;;14.77;;
49223;SDS011;35050;51.316;5.994;2022-12-01T13:12:14;22.35;;;14.48;;
49223;SDS011;35050;51.316;5.994;2022-12-01T13:14:59;21.63;;;14.00;;
49223;SDS011;35050;51.316;5.994;2022-12-01T13:17:34;19.00;;;12.25;;
49223;SDS011;35050;51.316;5.994;2022-12-01T13:20:03;24.70;;;15.30;;
49223;SDS011;35050;51.316;5.994;2022-12-01T13:22:31;21.38;;;13.82;;
49223;SDS011;35050;51.316;5.994;2022-12-01T13:24:58;20.73;;;14.30;;
49223;SDS011;35050;51.316;5.994;2022-12-01T13:27:24;20.70;;;14.05;;
49223;SDS011;35050;51.316;5.994;2022-12-01T13:29:55;25.83;;;16.70;;
49223;SDS011;35050;51.316;5.994;2022-12-01T13:34:58;25.25;;;15.70;;
49223;SDS011;35050;51.316;5.994;2022-12-01T13:37:26;21.17;;;15.27;;
49223;SDS011;35050;51.316;5.994;2022-12-01T13:39:54;27.58;;;16.55;;
49223;SDS011;35050;51.316;5.994;2022-12-01T13:42:31;21.63;;;14.15;;
49223;SDS011;35050;51.316;5.994;2022-12-01T13:44:59;20.40;;;13.70;;
49223;SDS011;35050;51.316;5.994;2022-12-01T13:53:10;21.70;;;14.18;;
49223;SDS011;35050;51.316;5.994;2022-12-01T14:04:16;28.52;;;16.95;;
49223;SDS011;35050;51.316;5.994;2022-12-01T14:06:46;27.20;;;16.98;;
49223;SDS011;35050;51.316;5.994;2022-12-01T14:12:00;23.45;;;15.02;;
49223;SDS011;35050;51.316;5.994;2022-12-01T14:14:35;23.65;;;14.15;;
49223;SDS011;35050;51.316;5.994;2022-12-01T14:17:04;22.75;;;14.10;;
49223;SDS011;35050;51.316;5.994;2022-12-01T14:19:49;22.42;;;14.02;;
49223;SDS011;35050;51.316;5.994;2022-12-01T14:27:59;24.77;;;14.25;;
49223;SDS011;35050;51.316;5.994;2022-12-01T14:41:22;28.15;;;15.50;;
49223;SDS011;35050;51.316;5.994;2022-12-01T14:43:59;27.50;;;14.88;;
49223;SDS011;35050;51.316;5.994;2022-12-01T14:46:39;26.92;;;14.43;;
49223;SDS011;35050;51.316;5.994;2022-12-01T14:49:12;19.90;;;12.10;;
49223;SDS011;35050;51.316;5.994;2022-12-01T14:51:46;20.95;;;13.00;;
49223;SDS011;35050;51.316;5.994;2022-12-01T14:54:24;21.75;;;13.00;;
49223;SDS011;35050;51.316;5.994;2022-12-01T14:56:54;21.30;;;12.30;;
49223;SDS011;35050;51.316;5.994;2022-12-01T14:59:23;21.58;;;12.10;;
49223;SDS011;35050;51.316;5.994;2022-12-01T15:01:51;19.15;;;12.30;;
49223;SDS011;35050;51.316;5.994;2022-12-01T15:04:20;19.98;;;11.57;;
49223;SDS011;35050;51.316;5.994;2022-12-01T15:06:46;20.27;;;12.60;;
49223;SDS011;35050;51.316;5.994;2022-12-01T15:09:21;18.98;;;11.57;;
49223;SDS011;35050;51.316;5.994;2022-12-01T15:11:49;18.90;;;12.02;;
49223;SDS011;35050;51.316;5.994;2022-12-01T15:14:21;18.17;;;11.98;;
49223;SDS011;35050;51.316;5.994;2022-12-01T15:16:48;21.73;;;11.80;;
49223;SDS011;35050;51.316;5.994;2022-12-01T15:19:31;21.73;;;12.25;;
49223;SDS011;35050;51.316;5.994;2022-12-01T15:22:14;19.60;;;12.18;;
49223;SDS011;35050;51.316;5.994;2022-12-01T15:24:41;19.33;;;11.65;;
49223;SDS011;35050;51.316;5.994;2022-12-01T15:27:23;19.05;;;11.45;;
49223;SDS011;35050;51.316;5.994;2022-12-01T15:29:51;23.55;;;12.90;;
49223;SDS011;35050;51.316;5.994;2022-12-01T15:32:17;25.92;;;14.48;;
49223;SDS011;35050;51.316;5.994;2022-12-01T15:34:46;24.98;;;14.60;;
49223;SDS011;35050;51.316;5.994;2022-12-01T15:37:15;24.13;;;14.05;;
49223;SDS011;35050;51.316;5.994;2022-12-01T15:39:52;20.38;;;12.52;;
49223;SDS011;35050;51.316;5.994;2022-12-01T15:42:25;20.90;;;12.57;;
49223;SDS011;35050;51.316;5.994;2022-12-01T15:44:58;18.92;;;12.27;;
49223;SDS011;35050;51.316;5.994;2022-12-01T15:47:28;21.70;;;12.68;;
49223;SDS011;35050;51.316;5.994;2022-12-01T15:50:36;24.65;;;13.18;;
49223;SDS011;35050;51.316;5.994;2022-12-01T15:53:06;24.35;;;13.52;;
49223;SDS011;35050;51.316;5.994;2022-12-01T15:55:45;24.88;;;14.40;;
49223;SDS011;35050;51.316;5.994;2022-12-01T15:58:18;24.10;;;13.82;;
49223;SDS011;35050;51.316;5.994;2022-12-01T16:01:00;20.85;;;11.77;;
49223;SDS011;35050;51.316;5.994;2022-12-01T16:03:28;18.85;;;12.02;;
49223;SDS011;35050;51.316;5.994;2022-12-01T16:05:55;19.13;;;11.30;;
49223;SDS011;35050;51.316;5.994;2022-12-01T16:08:22;18.60;;;10.32;;
49223;SDS011;35050;51.316;5.994;2022-12-01T16:11:10;16.52;;;10.27;;
49223;SDS011;35050;51.316;5.994;2022-12-01T16:21:47;29.85;;;16.58;;
49223;SDS011;35050;51.316;5.994;2022-12-01T16:24:29;27.23;;;15.00;;
49223;SDS011;35050;51.316;5.994;2022-12-01T16:29:48;19.88;;;12.43;;
49223;SDS011;35050;51.316;5.994;2022-12-01T16:32:17;21.90;;;13.82;;
49223;SDS011;35050;51.316;5.994;2022-12-01T16:34:51;16.75;;;10.95;;
49223;SDS011;35050;51.316;5.994;2022-12-01T16:37:17;18.02;;;11.57;;
49223;SDS011;35050;51.316;5.994;2022-12-01T16:39:43;19.45;;;11.95;;
49223;SDS011;35050;51.316;5.994;2022-12-01T16:42:10;18.27;;;11.25;;
49223;SDS011;35050;51.316;5.994;2022-12-01T16:44:40;20.50;;;12.02;;
49223;SDS011;35050;51.316;5.994;2022-12-01T16:47:15;17.25;;;11.90;;
49223;SDS011;35050;51.316;5.994;2022-12-01T16:52:06;21.02;;;12.45;;